Flight Track Log - Related Links

Times and Time Zones

All times are in EDT time to prevent confusion due to time zone crossing. See the N182HP flight status page for this flight to view local times or setup timezone preferences in your user account.

Time Position Orientation Groundspeed Altitude Reporting Facility
EDT Latitude Longitude Course Direction KTS MPH feet Rate Location/Type
Mon 10:03:32 AM 42.2700 -74.0928 227° Southwest 71 82 4,600  Level Boston Center
Mon 10:04:14 AM 42.2586 -74.1061 221° Southwest 73 84 5,200 889 Climbing Boston Center
Mon 10:04:26 AM 42.2556 -74.1111 230° Southwest 76 87 5,400 787 Climbing Boston Center
Mon 10:05:15 AM 42.2417 -74.1231 212° Southwest 75 86 6,000 589 Climbing Boston Center
Mon 10:06:18 AM 42.2269 -74.1431 225° Southwest 75 86 6,500 242 Climbing Boston Center
Mon 10:07:19 AM 42.2008 -74.1689 216° Southwest 107 123 6,500  Level Boston Center
Mon 10:08:19 AM 42.1722 -74.1917 211° Southwest 116 133 6,500  Level Boston Center
Mon 10:09:23 AM 42.1428 -74.2158 211° Southwest 120 138 6,500  Level Boston Center
Mon 10:10:23 AM 42.1131 -74.2400 211° Southwest 117 135 6,500  Level Boston Center
Mon 10:11:24 AM 42.0844 -74.2636 211° Southwest 118 136 6,500  Level Boston Center
Mon 10:12:27 AM 42.0575 -74.2850 211° Southwest 117 135 6,500  Level Boston Center
Mon 10:13:28 AM 42.0283 -74.3097 212° Southwest 116 133 6,500  Level Boston Center
Mon 10:14:31 AM 42.0019 -74.3308 211° Southwest 115 132 6,500  Level Boston Center
Mon 10:15:32 AM 41.9753 -74.3528 211° Southwest 114 131 6,500  Level Boston Center
Mon 10:16:32 AM 41.9467 -74.3756 211° Southwest 114 131 6,500  Level Boston Center
Mon 10:17:36 AM 41.9206 -74.3972 212° Southwest 112 129 6,500  Level Boston Center
Mon 10:18:36 AM 41.8919 -74.4214 212° Southwest 113 130 6,500  Level Boston Center
Mon 10:19:37 AM 41.8642 -74.4433 210° Southwest 113 130 6,500  Level Boston Center
Mon 10:20:40 AM 41.8367 -74.4661 212° Southwest 114 131 6,500  Level Boston Center
Mon 10:21:41 AM 41.8072 -74.4906 212° Southwest 115 132 6,500  Level Boston Center
Mon 10:22:42 AM 41.7789 -74.5133 211° Southwest 116 133 6,500  Level Boston Center
Mon 10:23:46 AM 41.7506 -74.5369 212° Southwest 118 136 6,500  Level Boston Center
Mon 10:24:47 AM 41.7203 -74.5603 210° Southwest 118 136 6,500  Level Boston Center
Mon 10:25:47 AM 41.6925 -74.5833 212° Southwest 118 136 6,500  Level Boston Center
Mon 10:26:51 AM 41.6628 -74.6069 211° Southwest 117 135 6,500  Level Boston Center
Mon 10:27:52 AM 41.6353 -74.6292 211° Southwest 117 135 6,500  Level Boston Center
Mon 10:28:53 AM 41.6075 -74.6517 211° Southwest 117 135 6,500  Level Boston Center
Mon 10:29:54 AM 41.5789 -74.6747 211° Southwest 117 135 6,500  Level Boston Center
Mon 10:30:58 AM 41.5514 -74.6969 211° Southwest 116 133 6,500  Level Boston Center
Mon 10:31:59 AM 41.5244 -74.7189 211° Southwest 116 133 6,500  Level Boston Center
Mon 10:32:59 AM 41.4961 -74.7408 210° Southwest 114 131 6,500  Level Boston Center
Mon 10:34:01 AM 41.4692 -74.7625 211° Southwest 114 131 6,500  Level Boston Center
Mon 10:35:04 AM 41.4422 -74.7850 212° Southwest 114 131 6,500  Level Boston Center
Mon 10:36:05 AM 41.4128 -74.8078 210° Southwest 114 131 6,500  Level Boston Center
Mon 10:37:06 AM 41.3861 -74.8294 211° Southwest 114 131 6,500  Level Boston Center
Mon 10:38:07 AM 41.3569 -74.8528 211° Southwest 114 131 6,500  Level Boston Center
Mon 10:39:10 AM 41.3294 -74.8744 211° Southwest 114 131 6,500  Level Boston Center
Mon 10:40:10 AM 41.3025 -74.8956 210° Southwest 114 131 6,500  Level Boston Center
Mon 10:41:22 AM 41.2719 -74.9256 216° Southwest 121 139 6,500  Level New York Center
Mon 10:42:20 AM 41.2483 -74.9433 210° Southwest 116 133 6,500  Level New York Center
Mon 10:43:21 AM 41.2203 -74.9664 212° Southwest 116 133 6,500  Level New York Center
Mon 10:44:21 AM 41.1903 -74.9894 210° Southwest 116 133 6,500  Level New York Center
Mon 10:45:21 AM 41.1625 -75.0097 209° Southwest 116 133 6,500  Level New York Center
Mon 10:46:22 AM 41.1369 -75.0300 211° Southwest 116 133 6,500  Level New York Center
Mon 10:46:44 AM 41.1242 -75.0375 204° Southwest 111 128 6,500  Level New York Center
Mon 10:47:20 AM 41.1133 -75.0506 222° Southwest 121 139 6,500  Level New York Center
Mon 10:47:51 AM 41.0919 -75.0631 204° Southwest 109 125 6,500  Level New York Center
Mon 10:48:21 AM 41.0875 -75.0683 222° Southwest 121 139 6,500  Level New York Center
Mon 10:48:51 AM 41.0681 -75.0864 215° Southwest 109 125 6,500  Level New York Center
Mon 10:49:22 AM 41.0594 -75.0942 214° Southwest 121 139 6,500  Level New York Center
Mon 10:49:53 AM 41.0425 -75.1039 203° Southwest 107 123 6,500  Level New York Center
Mon 10:50:20 AM 41.0339 -75.1117 214° Southwest 121 139 6,500  Level New York Center
Mon 10:50:51 AM 41.0147 -75.1242 206° Southwest 107 123 6,500  Level New York Center
Mon 10:51:22 AM 41.0039 -75.1344 216° Southwest 121 139 6,500  Level New York Center
Mon 10:51:54 AM 40.9908 -75.1475 217° Southwest 107 123 6,500  Level New York Center
Mon 10:52:22 AM 40.9803 -75.1522 199° South 121 139 6,500  Level New York Center
Mon 10:52:54 AM 40.9631 -75.1650 209° Southwest 108 124 6,500  Level New York Center
Mon 10:53:21 AM 40.9567 -75.1700 211° Southwest 121 139 6,500  Level New York Center
Mon 10:53:54 AM 40.9375 -75.1853 211° Southwest 103 119 6,500  Level New York Center
Mon 10:54:22 AM 40.9311 -75.1903 211° Southwest 121 139 6,500  Level New York Center
Mon 10:54:55 AM 40.9139 -75.2056 214° Southwest 106 122 6,500  Level New York Center
Mon 10:55:23 AM 40.9031 -75.2131 208° Southwest 121 139 6,500  Level New York Center
Mon 10:55:55 AM 40.8858 -75.2258 209° Southwest 105 121 6,500  Level New York Center
Mon 10:56:22 AM 40.8794 -75.2308 211° Southwest 114 131 6,500  Level New York Center
Mon 10:56:56 AM 40.8622 -75.2461 214° Southwest 106 122 6,500  Level New York Center
Mon 10:57:20 AM 40.8536 -75.2511 204° Southwest 114 131 6,500  Level New York Center
Mon 10:57:51 AM 40.8408 -75.2639 217° Southwest 105 121 6,500  Level New York Center
Mon 10:58:21 AM 40.8300 -75.2686 198° South 109 125 6,500  Level New York Center
Mon 10:58:51 AM 40.8131 -75.2814 210° Southwest 104 120 6,500  Level New York Center
Mon 10:59:22 AM 40.8044 -75.2889 213° Southwest 109 125 6,500  Level New York Center
Mon 10:59:58 AM 40.7869 -75.3042 213° Southwest 104 120 6,500  Level New York Center
Mon 11:00:23 AM 40.7786 -75.3092 204° Southwest 109 125 6,500  Level New York Center
Mon 11:01:05 AM 40.7592 -75.3244 211° Southwest 104 120 6,500  Level New York Center
Mon 11:01:20 AM 40.7528 -75.3294 211° Southwest 109 125 6,500 -462 Level New York Center
Mon 11:01:57 AM 40.7356 -75.3447 214° Southwest 114 131 6,100 -566 Descending New York Center
Mon 11:03:06 AM 40.7011 -75.3725 211° Southwest 124 143 5,500 -516 Descending New York Center
Mon 11:04:05 AM 40.6733 -75.3897 205° Southwest 122 140 5,000 -450 Descending New York Center
Mon 11:05:06 AM 40.6431 -75.4150 212° Southwest 119 137 4,600 -246 Descending New York Center
Mon 11:06:07 AM 40.6153 -75.4378 212° Southwest 113 130 4,500 -49 Descending New York Center
Mon 11:07:09 AM 40.5894 -75.4578 210° Southwest 106 122 4,500  Level New York Center
Mon 11:08:07 AM 40.5658 -75.4753 209° Southwest 107 123 4,500  Level New York Center
Mon 11:09:16 AM 40.5356 -75.4978 209° Southwest 109 125 4,500  Level New York Center
Mon 11:10:15 AM 40.5097 -75.5233 217° Southwest 109 125 4,500  Level New York Center
Mon 11:11:16 AM 40.4842 -75.5381 204° Southwest 108 124 4,500  Level New York Center
Mon 11:12:17 AM 40.4539 -75.5606 209° Southwest 110 127 4,500  Level New York Center
Mon 11:13:31 AM 40.4236 -75.5883 215° Southwest 111 128 4,500  Level New York Center
Mon 11:14:23 AM 40.4000 -75.6031 205° Southwest 111 128 4,500  Level New York Center
Mon 11:15:26 AM 40.3742 -75.6258 214° Southwest 109 125 4,500  Level New York Center
Mon 11:17:00 AM 40.3231 -75.6413 211° Southwest  Level FlightAware Approximate
Mon 11:24:00 AM 40.1309 -75.7921 212° Southwest  Level FlightAware Approximate
Mon 11:25:00 AM 40.1035 -75.8139 211° Southwest  Level FlightAware Approximate
Mon 11:26:00 AM 40.0762 -75.8358 211° Southwest  Level FlightAware Approximate
Mon 11:27:00 AM 40.0489 -75.8576 211° Southwest  Level FlightAware Approximate
Mon 11:28:00 AM 40.0216 -75.8794 211° Southwest  Level FlightAware Approximate
Mon 11:29:00 AM 39.9939 -75.9002 210° Southwest  Level FlightAware Approximate
Mon 11:30:00 AM 39.9660 -75.9208 210° Southwest  Level FlightAware Approximate
Mon 11:31:00 AM 39.9382 -75.9414 210° Southwest  Level FlightAware Approximate
Mon 11:32:00 AM 39.9103 -75.9620 210° Southwest  Level FlightAware Approximate
Mon 11:33:00 AM 39.8825 -75.9825 210° Southwest  Level FlightAware Approximate
Mon 11:34:00 AM 39.8546 -76.0031 210° Southwest  Level FlightAware Approximate
Mon 11:35:00 AM 39.8267 -76.0236 209° Southwest  Level FlightAware Approximate
Mon 11:36:00 AM 39.7989 -76.0441 209° Southwest  Level FlightAware Approximate
Mon 11:37:00 AM 39.7710 -76.0646 209° Southwest  Level FlightAware Approximate
Mon 11:38:00 AM 39.7431 -76.0851 209° Southwest  Level FlightAware Approximate
Mon 11:39:00 AM 39.7152 -76.1055 209° Southwest  Level FlightAware Approximate
Mon 11:40:00 AM 39.6876 -76.1266 212° Southwest  Level FlightAware Approximate
Mon 11:41:00 AM 39.6604 -76.1484 212° Southwest  Level FlightAware Approximate
Mon 11:42:00 AM 39.6331 -76.1702 212° Southwest  Level FlightAware Approximate
Mon 11:43:00 AM 39.6059 -76.1920 212° Southwest  Level FlightAware Approximate
Mon 11:44:00 AM 39.5786 -76.2138 212° Southwest  Level FlightAware Approximate
Mon 11:45:00 AM 39.5514 -76.2356 212° Southwest  Level FlightAware Approximate
Mon 11:46:00 AM 39.5225 -76.2500 180° South  Level FlightAware Approximate
Mon 11:47:00 AM 39.4960 -76.2707 218° Southwest  Level FlightAware Approximate
Mon 11:48:00 AM 39.4706 -76.2961 218° Southwest  Level FlightAware Approximate
Mon 11:49:00 AM 39.4426 -76.3160 207° Southwest  Level FlightAware Approximate
Mon 11:50:00 AM 39.4141 -76.3346 201° Southwest  Level FlightAware Approximate
Mon 11:51:00 AM 39.3842 -76.3496 201° Southwest  Level FlightAware Approximate
Mon 11:52:00 AM 39.3564 -76.3702 210° Southwest  Level FlightAware Approximate
Mon 11:53:00 AM 39.3288 -76.3910 210° Southwest  Level FlightAware Approximate
Mon 11:54:00 AM 39.3257 -76.4138 210° Southwest  Level Estimated
Mon 11:55:00 AM 39.3257 -76.4138 130° Southeast  Level Estimated
Mon 11:56:00 AM 39.3257 -76.4138 210° Southwest  Level Estimated
Mon 11:57:00 AM 39.3257 -76.4138 130° Southeast  Level Estimated
Mon 11:58:00 AM 39.3257 -76.4138 130° Southeast  Level Estimated
Mon 11:59:00 AM 39.3257 -76.4138 210° Southwest  Level Estimated
Mon 12:00:00 PM 39.3257 -76.4138 130° Southeast  Level Estimated
Mon 12:01:00 PM 39.3257 -76.4138 130° Southeast  Level Estimated
Mon 12:02:00 PM 39.3257 -76.4138 210° Southwest  Level Estimated
Mon 12:03:00 PM 39.3257 -76.4138 130° Southeast  Level Estimated
Mon 12:04:00 PM 39.3257 -76.4138 130° Southeast  Level Estimated
Mon 12:05:00 PM 39.3257 -76.4138 210° Southwest  Level Estimated
Mon 12:06:00 PM 39.3257 -76.4138 130° Southeast  Level Estimated
Mon 12:07:00 PM 39.3257 -76.4138 130° Southeast  Level Estimated
Mon 12:08:00 PM 39.3257 -76.4138 210° Southwest  Level Estimated

Login

Don't have an account? Register now (free) for customized features, flight alerts, and more!